Time;durP1;ratioP1;P1;durP2;ratioP2;P2;SDS_P1;SDS_P2;PMS_P1;PMS_P2;Temp;Humidity;BMP_temperature;BMP_pressure;BME280_temperature;BME280_humidity;BME280_pressure;Samples;Min_cycle;Max_cycle;Signal;HPM_P1;HPM_P2
2022/05/30 00:01:38;;;;;;;18.40;4.20;;;;;;;;;;5009290;28;20041;-71
2022/05/30 00:04:03;;;;;;;11.77;3.60;;;;;;;;;;5010993;28;20025;-71
2022/05/30 00:06:29;;;;;;;15.73;3.90;;;;;;;;;;5012710;28;20041;-71
2022/05/30 00:08:54;;;;;;;11.33;4.23;;;;;;;;;;5008635;28;20035;-71
2022/05/30 00:11:20;;;;;;;18.00;3.80;;;;;;;;;;5013271;28;20112;-71
2022/05/30 00:13:45;;;;;;;10.90;3.27;;;;;;;;;;5011926;28;20710;-71
2022/05/30 00:16:12;;;;;;;13.83;3.57;;;;;;;;;;5008465;28;20039;-71
2022/05/30 00:18:38;;;;;;;14.17;3.90;;;;;;;;;;5011560;28;22030;-71
2022/05/30 00:21:04;;;;;;;16.73;3.50;;;;;;;;;;5011042;28;20043;-71
2022/05/30 00:23:29;;;;;;;21.27;3.63;;;;;;;;;;5013000;28;20391;-71
2022/05/30 00:25:54;;;;;;;14.33;3.80;;;;;;;;;;5011626;28;20474;-71
2022/05/30 00:28:19;;;;;;;16.40;3.77;;;;;;;;;;5012687;28;20025;-71
2022/05/30 00:30:45;;;;;;;16.77;3.57;;;;;;;;;;5013423;28;20405;-71
2022/05/30 00:33:11;;;;;;;17.17;3.77;;;;;;;;;;5012987;28;20029;-71
2022/05/30 00:35:36;;;;;;;12.23;3.57;;;;;;;;;;5014486;28;20522;-71
2022/05/30 00:38:01;;;;;;;20.00;4.13;;;;;;;;;;5011233;28;20026;-71
2022/05/30 00:40:27;;;;;;;18.83;4.10;;;;;;;;;;5012014;28;20104;-71
2022/05/30 00:42:52;;;;;;;18.20;4.00;;;;;;;;;;5011356;28;20517;-71
2022/05/30 00:45:18;;;;;;;19.30;4.27;;;;;;;;;;5014976;28;20033;-71
2022/05/30 00:47:43;;;;;;;16.47;4.27;;;;;;;;;;5008646;28;20114;-71
2022/05/30 00:50:08;;;;;;;14.53;4.30;;;;;;;;;;5011440;28;20432;-71
2022/05/30 00:52:41;;;;;;;13.33;3.90;;;;;;;;;;5013410;28;20042;-71
2022/05/30 00:55:14;;;;;;;16.60;4.50;;;;;;;;;;5013845;28;20025;-71
2022/05/30 00:57:41;;;;;;;17.70;4.20;;;;;;;;;;5014213;28;20088;-71
2022/05/30 01:00:08;;;;;;;16.37;4.10;;;;;;;;;;5009038;28;20033;-71
2022/05/30 01:02:35;;;;;;;19.00;4.10;;;;;;;;;;5006013;28;20039;-71
2022/05/30 01:07:46;;;;;;;15.83;3.03;;;;;;;;;;5010156;28;20041;-71
2022/05/30 01:10:13;;;;;;;19.87;3.80;;;;;;;;;;5012665;28;20036;-71
2022/05/30 01:12:49;;;;;;;13.03;3.37;;;;;;;;;;5012991;28;20029;-71
2022/05/30 01:15:15;;;;;;;12.60;3.20;;;;;;;;;;5011058;28;20087;-71
2022/05/30 01:17:46;;;;;;;12.23;3.10;;;;;;;;;;5010268;28;20500;-71
2022/05/30 01:20:18;;;;;;;13.55;3.78;;;;;;;;;;5009059;28;20025;-71
2022/05/30 01:22:52;;;;;;;10.80;3.15;;;;;;;;;;5008751;28;20636;-71
2022/05/30 01:25:21;;;;;;;12.67;3.57;;;;;;;;;;5007081;28;21729;-71
2022/05/30 01:27:46;;;;;;;15.90;3.53;;;;;;;;;;5006852;28;20033;-71
2022/05/30 01:30:12;;;;;;;12.00;3.73;;;;;;;;;;5005430;28;20731;-71
2022/05/30 01:32:37;;;;;;;15.83;3.57;;;;;;;;;;5007253;28;20026;-71
2022/05/30 01:35:03;;;;;;;12.23;3.60;;;;;;;;;;5010012;28;20036;-71
2022/05/30 01:37:28;;;;;;;16.47;4.00;;;;;;;;;;5009262;28;20022;-71
2022/05/30 01:39:53;;;;;;;13.23;3.67;;;;;;;;;;5011945;28;20043;-71
2022/05/30 01:42:19;;;;;;;13.00;3.83;;;;;;;;;;5015537;28;20076;-71
2022/05/30 01:44:44;;;;;;;18.50;4.10;;;;;;;;;;5018918;28;20491;-71
2022/05/30 01:47:09;;;;;;;16.00;4.20;;;;;;;;;;5016616;28;20033;-71
2022/05/30 01:49:35;;;;;;;20.03;5.43;;;;;;;;;;5019787;28;20079;-71
2022/05/30 01:52:00;;;;;;;17.20;4.20;;;;;;;;;;5017448;28;20030;-71
2022/05/30 01:54:25;;;;;;;19.83;3.97;;;;;;;;;;5015779;28;20053;-71
2022/05/30 01:56:51;;;;;;;14.70;4.10;;;;;;;;;;5014039;28;20486;-71
2022/05/30 01:59:16;;;;;;;14.50;3.70;;;;;;;;;;5012631;28;20453;-71
2022/05/30 02:01:42;;;;;;;15.30;3.60;;;;;;;;;;5010426;28;20095;-71
2022/05/30 02:04:08;;;;;;;12.20;3.80;;;;;;;;;;5012410;28;20044;-71
2022/05/30 02:06:35;;;;;;;13.13;3.60;;;;;;;;;;5015053;28;20382;-71
2022/05/30 02:09:00;;;;;;;13.30;3.93;;;;;;;;;;5012649;28;20030;-71
2022/05/30 02:11:25;;;;;;;16.10;4.43;;;;;;;;;;5011180;28;20036;-71
2022/05/30 02:13:50;;;;;;;13.13;3.67;;;;;;;;;;5015494;28;20022;-71
2022/05/30 02:19:00;;;;;;;12.73;3.20;;;;;;;;;;5009843;28;20036;-71
2022/05/30 02:21:26;;;;;;;12.30;3.30;;;;;;;;;;5013223;28;20017;-72
2022/05/30 02:23:51;;;;;;;11.57;3.20;;;;;;;;;;5016295;28;20069;-71
2022/05/30 02:26:16;;;;;;;8.80;3.07;;;;;;;;;;5017893;28;20033;-71
2022/05/30 02:28:41;;;;;;;14.23;3.50;;;;;;;;;;5014631;28;20060;-71
2022/05/30 02:31:07;;;;;;;14.00;3.30;;;;;;;;;;5013446;28;20061;-71
2022/05/30 02:39:00;;;;;;;10.77;3.70;;;;;;;;;;5013865;28;20439;-71
2022/05/30 02:41:26;;;;;;;10.63;3.30;;;;;;;;;;5009293;28;20025;-71
2022/05/30 02:43:51;;;;;;;12.03;2.83;;;;;;;;;;5007609;28;20052;-71
2022/05/30 02:46:17;;;;;;;11.17;2.77;;;;;;;;;;5017304;28;20090;-69
2022/05/30 02:48:43;;;;;;;12.13;2.87;;;;;;;;;;5014520;28;20071;-69
2022/05/30 02:51:08;;;;;;;9.87;2.60;;;;;;;;;;5015454;28;20406;-69
2022/05/30 02:53:33;;;;;;;13.10;2.73;;;;;;;;;;5019570;28;20060;-69
2022/05/30 02:55:59;;;;;;;10.23;2.80;;;;;;;;;;5015571;28;20064;-71
2022/05/30 02:58:24;;;;;;;14.23;2.60;;;;;;;;;;5015456;28;20033;-71
2022/05/30 03:00:50;;;;;;;14.27;3.00;;;;;;;;;;5013838;28;20056;-71
2022/05/30 03:03:15;;;;;;;10.87;2.90;;;;;;;;;;5011020;28;20033;-71
2022/05/30 03:05:40;;;;;;;11.83;3.00;;;;;;;;;;5010853;28;20029;-71
2022/05/30 03:08:06;;;;;;;10.83;3.33;;;;;;;;;;5011445;28;20075;-71
2022/05/30 03:10:32;;;;;;;13.13;2.80;;;;;;;;;;5011415;28;20386;-71
2022/05/30 03:12:57;;;;;;;11.03;3.40;;;;;;;;;;5012895;28;20040;-71
2022/05/30 03:15:22;;;;;;;11.47;3.10;;;;;;;;;;5011355;28;20268;-71
2022/05/30 03:17:51;;;;;;;11.13;3.10;;;;;;;;;;5017536;28;20029;-71
2022/05/30 03:20:16;;;;;;;10.27;3.17;;;;;;;;;;5014370;28;20403;-71
2022/05/30 03:22:41;;;;;;;11.10;3.07;;;;;;;;;;5006765;28;20033;-71
2022/05/30 03:25:07;;;;;;;10.83;3.00;;;;;;;;;;5008249;28;20076;-71
2022/05/30 03:27:32;;;;;;;8.97;2.93;;;;;;;;;;5009803;28;20457;-71
2022/05/30 03:29:57;;;;;;;9.77;3.13;;;;;;;;;;5012711;28;20458;-71
2022/05/30 03:32:22;;;;;;;8.60;2.47;;;;;;;;;;5010483;28;20128;-71
2022/05/30 03:34:47;;;;;;;9.77;2.03;;;;;;;;;;5010339;28;20026;-71
2022/05/30 03:37:13;;;;;;;9.03;2.40;;;;;;;;;;5011689;28;20040;-71
2022/05/30 03:39:38;;;;;;;11.60;2.57;;;;;;;;;;5008440;28;20025;-71
2022/05/30 03:42:04;;;;;;;7.40;2.07;;;;;;;;;;5006333;28;20041;-71
2022/05/30 03:44:29;;;;;;;10.23;2.47;;;;;;;;;;5010292;28;20022;-71
2022/05/30 03:46:54;;;;;;;9.80;2.40;;;;;;;;;;5003029;28;21481;-71
2022/05/30 03:49:20;;;;;;;6.73;2.20;;;;;;;;;;5013419;28;20037;-71
2022/05/30 03:51:45;;;;;;;6.40;2.30;;;;;;;;;;5011301;28;20064;-71
2022/05/30 03:54:10;;;;;;;8.73;2.87;;;;;;;;;;5015633;28;20580;-71
2022/05/30 03:56:36;;;;;;;7.37;2.40;;;;;;;;;;5012841;28;20371;-71
2022/05/30 03:59:02;;;;;;;10.13;2.40;;;;;;;;;;5022937;28;20505;-71
2022/05/30 04:01:27;;;;;;;7.67;2.33;;;;;;;;;;5013419;28;20168;-71
2022/05/30 04:03:52;;;;;;;5.83;2.60;;;;;;;;;;5010312;28;20036;-71
2022/05/30 04:06:17;;;;;;;9.33;2.60;;;;;;;;;;5013797;28;20041;-71
2022/05/30 04:08:42;;;;;;;10.70;3.10;;;;;;;;;;5011398;28;20128;-71
2022/05/30 04:11:08;;;;;;;9.70;2.70;;;;;;;;;;5010333;28;20044;-71
2022/05/30 04:13:33;;;;;;;11.37;2.80;;;;;;;;;;5007449;28;20087;-71
2022/05/30 04:16:06;;;;;;;9.33;2.70;;;;;;;;;;5013788;28;20036;-71
2022/05/30 04:18:31;;;;;;;7.73;2.20;;;;;;;;;;5032151;28;20021;-71
2022/05/30 04:20:56;;;;;;;8.83;2.07;;;;;;;;;;5026045;28;20481;-71
2022/05/30 04:23:21;;;;;;;8.93;2.37;;;;;;;;;;5031674;28;20029;-71
2022/05/30 04:25:46;;;;;;;7.27;2.07;;;;;;;;;;5029447;28;20032;-71
2022/05/30 04:28:12;;;;;;;8.60;2.10;;;;;;;;;;5031357;28;20017;-71
2022/05/30 04:30:37;;;;;;;6.53;1.70;;;;;;;;;;5030197;28;20017;-71
2022/05/30 04:33:02;;;;;;;4.93;1.67;;;;;;;;;;5021438;28;20040;-71
2022/05/30 04:35:27;;;;;;;5.80;1.80;;;;;;;;;;5023505;28;20118;-71
2022/05/30 04:37:53;;;;;;;5.20;1.70;;;;;;;;;;5031939;28;20017;-71
2022/05/30 04:40:19;;;;;;;4.83;1.80;;;;;;;;;;5026159;28;20032;-71
2022/05/30 04:42:45;;;;;;;4.47;1.53;;;;;;;;;;5029703;28;20036;-71
2022/05/30 04:45:10;;;;;;;8.43;2.00;;;;;;;;;;5020372;28;20421;-71
2022/05/30 04:47:36;;;;;;;7.47;1.90;;;;;;;;;;5030732;28;20040;-71
2022/05/30 04:50:06;;;;;;;6.70;2.00;;;;;;;;;;5023339;28;20030;-71
2022/05/30 04:52:31;;;;;;;7.47;2.10;;;;;;;;;;5016904;28;20029;-71
2022/05/30 04:54:57;;;;;;;8.53;2.17;;;;;;;;;;5031131;28;20022;-71
2022/05/30 04:57:22;;;;;;;5.03;1.80;;;;;;;;;;5029138;28;20367;-71
2022/05/30 04:59:47;;;;;;;5.90;1.77;;;;;;;;;;5016663;28;20037;-71
2022/05/30 05:02:14;;;;;;;6.73;2.20;;;;;;;;;;5024652;28;20083;-71
2022/05/30 05:04:40;;;;;;;5.93;2.20;;;;;;;;;;5022946;28;20030;-71
2022/05/30 05:07:05;;;;;;;6.77;2.40;;;;;;;;;;5012248;28;20060;-71
2022/05/30 05:09:46;;;;;;;6.53;2.33;;;;;;;;;;5012612;28;20068;-71
2022/05/30 05:12:11;;;;;;;7.80;2.60;;;;;;;;;;5024674;28;20604;-71
2022/05/30 05:14:36;;;;;;;11.47;3.37;;;;;;;;;;5028626;28;20029;-71
2022/05/30 05:17:02;;;;;;;8.13;2.70;;;;;;;;;;5020219;28;20048;-71
2022/05/30 05:19:28;;;;;;;8.43;2.43;;;;;;;;;;5019609;28;20284;-71
2022/05/30 05:21:53;;;;;;;6.70;2.27;;;;;;;;;;5026985;28;20032;-71
2022/05/30 05:24:18;;;;;;;9.47;2.80;;;;;;;;;;5020765;28;20026;-71
2022/05/30 05:26:45;;;;;;;5.77;2.50;;;;;;;;;;5026067;28;20350;-71
2022/05/30 05:29:10;;;;;;;8.37;2.80;;;;;;;;;;5017463;28;20514;-71
2022/05/30 05:31:35;;;;;;;7.27;2.70;;;;;;;;;;5015756;28;20032;-71
2022/05/30 05:34:03;;;;;;;7.40;2.40;;;;;;;;;;5025535;28;20030;-71
2022/05/30 05:36:29;;;;;;;5.87;2.60;;;;;;;;;;5020950;28;20466;-71
2022/05/30 05:38:54;;;;;;;8.87;2.50;;;;;;;;;;5020416;28;20116;-71
2022/05/30 05:41:21;;;;;;;8.23;3.30;;;;;;;;;;5020605;28;20546;-71
2022/05/30 05:43:46;;;;;;;9.27;2.40;;;;;;;;;;5024968;28;20338;-71
2022/05/30 05:46:16;;;;;;;7.77;2.63;;;;;;;;;;5021392;28;20038;-71
2022/05/30 05:48:41;;;;;;;11.50;3.57;;;;;;;;;;5024810;28;20061;-71
2022/05/30 05:51:06;;;;;;;10.20;3.00;;;;;;;;;;5021641;28;20087;-71
2022/05/30 05:53:31;;;;;;;7.40;2.90;;;;;;;;;;5013783;28;20022;-71
2022/05/30 05:55:57;;;;;;;11.97;2.87;;;;;;;;;;5015887;28;20087;-71
2022/05/30 05:58:22;;;;;;;10.93;3.30;;;;;;;;;;5029841;28;20106;-71
2022/05/30 06:00:48;;;;;;;6.97;2.90;;;;;;;;;;5023024;28;20030;-71
2022/05/30 06:03:13;;;;;;;8.07;2.70;;;;;;;;;;5024516;28;20041;-71
2022/05/30 06:05:39;;;;;;;8.03;2.80;;;;;;;;;;5016734;28;20025;-71
2022/05/30 06:08:04;;;;;;;7.03;2.83;;;;;;;;;;5025190;28;20025;-70
2022/05/30 06:10:30;;;;;;;9.80;2.80;;;;;;;;;;5028946;28;20029;-71
2022/05/30 06:12:55;;;;;;;6.73;2.30;;;;;;;;;;5030728;28;20389;-70
2022/05/30 06:15:21;;;;;;;7.37;2.30;;;;;;;;;;5026942;28;20026;-70
2022/05/30 06:17:46;;;;;;;8.43;2.03;;;;;;;;;;5018231;28;20026;-70
2022/05/30 06:20:13;;;;;;;7.57;2.20;;;;;;;;;;5016672;28;20496;-70
2022/05/30 06:22:38;;;;;;;6.47;2.37;;;;;;;;;;5030839;28;20072;-70
2022/05/30 06:25:04;;;;;;;6.50;1.90;;;;;;;;;;5030972;28;20033;-70
2022/05/30 06:27:29;;;;;;;7.50;1.83;;;;;;;;;;5011390;28;20113;-70
2022/05/30 06:29:54;;;;;;;8.40;2.10;;;;;;;;;;5011187;28;20076;-70
2022/05/30 06:32:20;;;;;;;7.33;1.80;;;;;;;;;;5017062;28;20034;-70
2022/05/30 06:34:45;;;;;;;7.70;2.15;;;;;;;;;;5015004;28;20461;-70
2022/05/30 06:37:14;;;;;;;8.43;1.90;;;;;;;;;;5024826;28;20101;-70
2022/05/30 06:39:39;;;;;;;5.03;1.45;;;;;;;;;;5011855;28;20044;-70
2022/05/30 06:42:11;;;;;;;4.95;1.40;;;;;;;;;;5019661;28;20034;-70
2022/05/30 06:44:36;;;;;;;;;;;;;;;;;;5014103;28;20025;-70
2022/05/30 06:47:04;;;;;;;9.68;1.50;;;;;;;;;;5030683;28;19955;-71
2022/05/30 06:49:30;;;;;;;5.75;1.50;;;;;;;;;;5031012;28;20260;-71
2022/05/30 06:51:55;;;;;;;8.18;1.70;;;;;;;;;;5013325;28;20390;-71
2022/05/30 06:54:21;;;;;;;6.70;1.65;;;;;;;;;;5011189;28;20026;-71
2022/05/30 06:59:31;;;;;;;5.65;1.33;;;;;;;;;;5021403;28;20037;-71
2022/05/30 07:01:58;;;;;;;5.75;1.40;;;;;;;;;;5010804;28;20386;-70
2022/05/30 07:04:23;;;;;;;8.82;1.58;;;;;;;;;;5011921;28;20524;-70
2022/05/30 07:06:48;;;;;;;6.25;1.20;;;;;;;;;;5028918;28;20090;-70
2022/05/30 07:09:13;;;;;;;4.85;1.20;;;;;;;;;;5030808;28;20025;-70
2022/05/30 07:11:39;;;;;;;7.07;1.65;;;;;;;;;;5018775;28;20040;-70
2022/05/30 07:14:12;;;;;;;3.80;1.20;;;;;;;;;;5010446;28;20498;-70
2022/05/30 07:16:38;;;;;;;6.28;1.45;;;;;;;;;;5020796;28;20096;-71
2022/05/30 07:19:04;;;;;;;6.32;1.25;;;;;;;;;;5030303;28;20324;-70
2022/05/30 07:21:29;;;;;;;7.30;1.40;;;;;;;;;;5020256;28;20095;-70
2022/05/30 07:23:54;;;;;;;5.13;1.30;;;;;;;;;;5025727;28;20059;-70
2022/05/30 07:26:21;;;;;;;6.55;1.33;;;;;;;;;;5011957;28;20465;-70
2022/05/30 07:28:46;;;;;;;9.02;1.83;;;;;;;;;;5010837;28;20033;-71
2022/05/30 07:31:13;;;;;;;8.00;1.60;;;;;;;;;;5009936;28;20466;-71
2022/05/30 07:33:39;;;;;;;4.55;1.40;;;;;;;;;;5010171;28;20061;-71
2022/05/30 07:36:14;;;;;;;4.72;1.33;;;;;;;;;;5022689;28;20450;-70
2022/05/30 07:38:39;;;;;;;4.35;1.00;;;;;;;;;;5030416;28;20104;-71
2022/05/30 07:41:04;;;;;;;4.97;1.25;;;;;;;;;;5029434;28;20112;-70
2022/05/30 07:43:30;;;;;;;5.35;1.30;;;;;;;;;;5030415;28;20024;-70
2022/05/30 07:45:59;;;;;;;6.10;1.30;;;;;;;;;;5025839;28;20040;-70
2022/05/30 07:48:24;;;;;;;4.38;1.33;;;;;;;;;;5030189;28;20580;-71
2022/05/30 07:50:53;;;;;;;3.60;1.10;;;;;;;;;;5028916;28;20029;-71
2022/05/30 07:53:19;;;;;;;5.10;1.38;;;;;;;;;;5010367;28;20363;-71
2022/05/30 07:55:44;;;;;;;7.78;1.80;;;;;;;;;;5021426;28;20099;-71
2022/05/30 07:58:09;;;;;;;5.30;1.45;;;;;;;;;;5024979;28;20030;-71
2022/05/30 08:00:35;;;;;;;5.80;1.33;;;;;;;;;;5009916;28;20026;-71
2022/05/30 08:03:01;;;;;;;3.92;1.20;;;;;;;;;;5023618;28;20473;-71
2022/05/30 08:05:26;;;;;;;4.57;1.00;;;;;;;;;;5019250;28;20112;-71
2022/05/30 08:07:54;;;;;;;4.07;1.17;;;;;;;;;;5010009;28;20091;-71
2022/05/30 08:10:20;;;;;;;8.13;1.13;;;;;;;;;;5009666;28;20065;-71
2022/05/30 08:12:47;;;;;;;7.25;1.20;;;;;;;;;;5010457;28;20096;-72
2022/05/30 08:15:12;;;;;;;4.72;1.05;;;;;;;;;;5017212;28;20405;-72
2022/05/30 08:17:38;;;;;;;3.75;0.95;;;;;;;;;;5018707;28;20041;-72
2022/05/30 08:20:04;;;;;;;4.88;0.98;;;;;;;;;;5009371;28;20030;-72
2022/05/30 08:22:31;;;;;;;5.90;1.27;;;;;;;;;;5029125;28;20485;-71
2022/05/30 08:24:57;;;;;;;4.65;1.00;;;;;;;;;;5023571;28;20082;-71
2022/05/30 08:27:22;;;;;;;4.68;0.95;;;;;;;;;;5027249;28;20112;-72
2022/05/30 08:29:48;;;;;;;2.50;0.80;;;;;;;;;;5029397;28;20045;-72
2022/05/30 08:32:13;;;;;;;3.95;0.98;;;;;;;;;;5028694;28;20040;-72
2022/05/30 08:34:39;;;;;;;3.25;0.77;;;;;;;;;;5026613;28;20018;-72
2022/05/30 08:37:05;;;;;;;4.38;1.00;;;;;;;;;;5026843;28;20037;-71
2022/05/30 08:42:16;;;;;;;3.97;0.80;;;;;;;;;;5008968;28;20452;-72
2022/05/30 08:44:42;;;;;;;2.55;0.73;;;;;;;;;;5012315;28;20033;-72
2022/05/30 08:47:33;;;;;;;4.30;0.82;;;;;;;;;;5029016;28;20022;-72
2022/05/30 08:50:07;;;;;;;4.13;0.90;;;;;;;;;;5026646;28;20034;-72
2022/05/30 08:52:38;;;;;;;3.72;0.80;;;;;;;;;;5011623;28;20099;-70
2022/05/30 08:55:12;;;;;;;3.38;0.90;;;;;;;;;;5015009;28;20049;-70
2022/05/30 08:57:53;;;;;;;4.03;1.10;;;;;;;;;;5025985;28;20858;-71
2022/05/30 09:00:21;;;;;;;4.63;1.25;;;;;;;;;;5008950;28;20445;-71
2022/05/30 09:02:49;;;;;;;4.53;1.20;;;;;;;;;;5008953;28;20026;-70
2022/05/30 09:05:17;;;;;;;7.32;1.20;;;;;;;;;;5016333;28;20028;-71
2022/05/30 09:07:49;;;;;;;6.43;1.58;;;;;;;;;;5028477;28;20033;-71
2022/05/30 09:10:20;;;;;;;7.18;1.30;;;;;;;;;;5026722;28;20069;-70
2022/05/30 09:12:59;;;;;;;6.03;1.02;;;;;;;;;;5028360;28;20084;-71
2022/05/30 09:15:27;;;;;;;6.18;0.90;;;;;;;;;;5026119;28;20025;-71
2022/05/30 09:17:57;;;;;;;5.78;0.90;;;;;;;;;;5028594;28;20030;-71
2022/05/30 09:20:23;;;;;;;3.28;0.93;;;;;;;;;;5019650;28;20030;-71
2022/05/30 09:22:49;;;;;;;2.38;0.70;;;;;;;;;;5010154;28;20038;-70
2022/05/30 09:27:59;;;;;;;3.08;0.70;;;;;;;;;;5028877;28;20163;-71
2022/05/30 09:30:28;;;;;;;3.53;0.60;;;;;;;;;;5020207;28;20050;-71
2022/05/30 09:32:59;;;;;;;3.55;0.90;;;;;;;;;;5014148;28;20034;-71
2022/05/30 09:35:27;;;;;;;2.40;0.70;;;;;;;;;;5015189;28;20025;-71
2022/05/30 09:38:16;;;;;;;2.83;0.70;;;;;;;;;;5028450;28;20485;-71
2022/05/30 09:40:43;;;;;;;1.98;0.60;;;;;;;;;;5018394;28;20398;-71
2022/05/30 09:43:10;;;;;;;3.10;0.75;;;;;;;;;;5008503;28;20030;-71
2022/05/30 09:45:36;;;;;;;4.18;0.90;;;;;;;;;;5018924;28;20024;-71
2022/05/30 09:48:03;;;;;;;1.30;0.60;;;;;;;;;;5028235;28;20478;-71
2022/05/30 09:50:29;;;;;;;2.47;0.60;;;;;;;;;;5021340;28;20033;-71
2022/05/30 09:52:54;;;;;;;3.08;0.70;;;;;;;;;;5008484;28;20577;-71
2022/05/30 09:55:46;;;;;;;4.53;0.90;;;;;;;;;;5016517;28;20021;-71
2022/05/30 09:58:11;;;;;;;5.55;1.40;;;;;;;;;;5009908;28;20398;-71
2022/05/30 10:00:54;;;;;;;2.13;0.70;;;;;;;;;;5008821;28;20026;-71
2022/05/30 10:03:28;;;;;;;4.85;0.70;;;;;;;;;;5008531;28;20135;-71
2022/05/30 10:06:10;;;;;;;3.45;1.08;;;;;;;;;;5023562;28;20032;-71
2022/05/30 10:08:35;;;;;;;3.47;0.82;;;;;;;;;;5030221;28;20057;-71
2022/05/30 10:11:01;;;;;;;5.25;1.10;;;;;;;;;;5031832;28;20570;-71
2022/05/30 10:13:38;;;;;;;4.05;0.80;;;;;;;;;;5015212;28;20112;-71
2022/05/30 10:16:05;;;;;;;3.20;0.90;;;;;;;;;;5026396;28;20044;-71
2022/05/30 10:18:33;;;;;;;4.03;0.80;;;;;;;;;;5031553;28;20575;-71
2022/05/30 10:21:11;;;;;;;5.38;0.80;;;;;;;;;;5022730;28;20125;-71
2022/05/30 10:29:24;;;;;;;2.67;0.70;;;;;;;;;;5031630;28;20413;-71
2022/05/30 10:31:59;;;;;;;4.85;0.93;;;;;;;;;;5016407;28;20117;-71
2022/05/30 10:34:30;;;;;;;3.88;0.93;;;;;;;;;;5012452;28;20485;-71
2022/05/30 10:37:11;;;;;;;3.75;0.80;;;;;;;;;;5019209;28;20037;-71
2022/05/30 10:39:42;;;;;;;3.70;1.13;;;;;;;;;;5011915;28;20028;-71
2022/05/30 10:42:13;;;;;;;3.13;0.90;;;;;;;;;;5011378;28;20038;-71
2022/05/30 10:44:41;;;;;;;3.30;0.80;;;;;;;;;;5014359;28;20131;-71
2022/05/30 10:47:07;;;;;;;3.53;0.75;;;;;;;;;;5030701;28;20214;-71
2022/05/30 10:49:35;;;;;;;3.10;0.80;;;;;;;;;;5027039;28;20393;-71
2022/05/30 10:52:18;;;;;;;2.78;0.60;;;;;;;;;;5030859;28;20112;-71
2022/05/30 10:54:44;;;;;;;2.28;0.70;;;;;;;;;;5028886;28;20048;-71
2022/05/30 10:57:28;;;;;;;2.60;0.63;;;;;;;;;;5030768;28;20022;-71
2022/05/30 11:00:02;;;;;;;4.78;0.70;;;;;;;;;;5020268;28;20052;-71
2022/05/30 11:02:30;;;;;;;4.32;0.75;;;;;;;;;;5011209;28;20075;-71
2022/05/30 11:04:56;;;;;;;4.80;1.20;;;;;;;;;;5014300;28;20032;-71
2022/05/30 11:07:21;;;;;;;4.40;0.98;;;;;;;;;;5030294;28;20036;-71
2022/05/30 11:09:52;;;;;;;5.45;1.00;;;;;;;;;;5012810;28;20422;-71
2022/05/30 11:12:22;;;;;;;4.70;0.90;;;;;;;;;;5010736;28;20025;-71
2022/05/30 11:14:47;;;;;;;2.90;0.65;;;;;;;;;;5014547;28;20033;-71
2022/05/30 11:17:17;;;;;;;1.48;0.60;;;;;;;;;;5029402;28;20394;-71
2022/05/30 11:20:05;;;;;;;4.38;0.65;;;;;;;;;;5029620;28;20025;-71
2022/05/30 11:22:38;;;;;;;2.20;0.50;;;;;;;;;;5030254;28;20026;-71
2022/05/30 11:25:04;;;;;;;1.80;0.40;;;;;;;;;;5028379;28;20025;-71
2022/05/30 11:27:39;;;;;;;2.22;0.50;;;;;;;;;;5029830;28;20021;-71
2022/05/30 11:30:08;;;;;;;2.35;0.70;;;;;;;;;;5030372;28;20536;-71
2022/05/30 11:33:01;;;;;;;3.08;0.68;;;;;;;;;;5030176;28;20036;-71
2022/05/30 11:35:33;;;;;;;2.22;0.60;;;;;;;;;;5024260;28;20092;-71
2022/05/30 11:38:18;;;;;;;1.73;0.80;;;;;;;;;;5030253;28;20022;-71
2022/05/30 11:40:53;;;;;;;2.15;0.60;;;;;;;;;;5028280;28;20032;-71
2022/05/30 11:43:37;;;;;;;1.77;0.50;;;;;;;;;;5030567;28;20029;-71
2022/05/30 11:46:10;;;;;;;3.00;0.80;;;;;;;;;;5023195;28;20037;-71
2022/05/30 11:48:44;;;;;;;2.75;0.60;;;;;;;;;;5030069;28;20057;-71
2022/05/30 11:51:25;;;;;;;2.33;0.65;;;;;;;;;;5029102;28;20045;-71
2022/05/30 11:53:50;;;;;;;3.47;0.85;;;;;;;;;;5029940;28;20406;-71
2022/05/30 11:56:22;;;;;;;2.08;0.77;;;;;;;;;;5022490;28;20040;-71
2022/05/30 11:58:47;;;;;;;2.45;0.80;;;;;;;;;;5029988;28;20516;-71
2022/05/30 12:01:14;;;;;;;4.18;1.20;;;;;;;;;;5029577;28;20553;-71
2022/05/30 12:03:48;;;;;;;4.32;0.90;;;;;;;;;;5027655;28;20034;-71
2022/05/30 12:06:19;;;;;;;3.63;0.90;;;;;;;;;;5026946;28;20601;-71
2022/05/30 12:09:04;;;;;;;2.42;0.80;;;;;;;;;;5029902;28;20071;-71
2022/05/30 12:11:29;;;;;;;2.70;0.90;;;;;;;;;;5029355;28;20034;-71
2022/05/30 12:14:13;;;;;;;3.92;0.70;;;;;;;;;;5026024;28;20131;-71
2022/05/30 12:16:51;;;;;;;3.13;0.95;;;;;;;;;;5028904;28;20021;-71
2022/05/30 12:24:56;;;;;;;1.95;0.70;;;;;;;;;;5027031;28;20449;-71
2022/05/30 12:27:28;;;;;;;2.47;0.80;;;;;;;;;;5028160;28;20180;-71
2022/05/30 12:29:54;;;;;;;3.90;0.90;;;;;;;;;;5028633;28;20025;-71
2022/05/30 12:32:22;;;;;;;2.38;0.73;;;;;;;;;;5015243;28;20386;-71
2022/05/30 12:37:47;;;;;;;5.93;1.13;;;;;;;;;;5023226;28;20382;-71
2022/05/30 12:40:21;;;;;;;2.25;0.70;;;;;;;;;;5009687;28;20042;-71
2022/05/30 12:42:56;;;;;;;1.95;0.75;;;;;;;;;;5009118;28;20033;-71
2022/05/30 12:45:33;;;;;;;4.03;0.90;;;;;;;;;;5017667;28;20542;-71
2022/05/30 12:48:00;;;;;;;2.67;0.80;;;;;;;;;;5009028;28;20040;-71
2022/05/30 12:50:32;;;;;;;4.38;0.70;;;;;;;;;;5020328;28;20108;-71
2022/05/30 12:52:59;;;;;;;3.05;0.70;;;;;;;;;;5013842;28;20061;-71
2022/05/30 12:55:35;;;;;;;1.80;0.70;;;;;;;;;;5017915;28;20026;-71
2022/05/30 12:58:00;;;;;;;2.28;0.70;;;;;;;;;;5028752;28;20120;-71
2022/05/30 13:00:41;;;;;;;2.20;0.63;;;;;;;;;;5028786;28;20025;-71
2022/05/30 13:03:25;;;;;;;2.80;0.80;;;;;;;;;;5012817;28;20492;-71
2022/05/30 13:06:02;;;;;;;2.97;0.70;;;;;;;;;;5021269;28;20045;-71
2022/05/30 13:08:46;;;;;;;2.20;0.60;;;;;;;;;;5011396;28;20530;-71
2022/05/30 13:11:13;;;;;;;2.30;0.60;;;;;;;;;;5008711;28;20041;-71
2022/05/30 13:13:41;;;;;;;2.33;0.50;;;;;;;;;;5028456;28;20083;-71
2022/05/30 13:16:12;;;;;;;1.88;0.55;;;;;;;;;;5025943;28;20026;-71
2022/05/30 13:18:38;;;;;;;3.13;0.80;;;;;;;;;;5008731;28;20022;-71
2022/05/30 13:21:04;;;;;;;2.17;0.70;;;;;;;;;;5008896;28;20393;-71
2022/05/30 13:23:36;;;;;;;3.00;0.70;;;;;;;;;;5013257;28;20436;-73
2022/05/30 13:26:03;;;;;;;1.98;0.77;;;;;;;;;;5025957;28;20163;-72
2022/05/30 13:28:31;;;;;;;3.00;0.90;;;;;;;;;;5028664;28;20048;-72
2022/05/30 13:30:57;;;;;;;1.88;0.70;;;;;;;;;;5028578;28;20032;-72
2022/05/30 13:33:35;;;;;;;2.35;0.82;;;;;;;;;;5026337;28;20401;-72
2022/05/30 13:36:01;;;;;;;3.70;0.95;;;;;;;;;;5021866;28;20029;-72
2022/05/30 13:38:56;;;;;;;2.53;0.80;;;;;;;;;;5011273;28;20026;-72
2022/05/30 13:41:21;;;;;;;3.03;0.80;;;;;;;;;;5012113;28;20041;-72
2022/05/30 13:43:49;;;;;;;1.83;0.77;;;;;;;;;;5012679;28;20109;-72
2022/05/30 13:46:14;;;;;;;3.58;0.80;;;;;;;;;;5025903;28;20028;-72
2022/05/30 13:48:40;;;;;;;3.95;0.90;;;;;;;;;;5012636;28;20398;-72
2022/05/30 13:51:06;;;;;;;2.00;0.90;;;;;;;;;;5028504;28;20429;-72
2022/05/30 13:53:40;;;;;;;4.25;0.95;;;;;;;;;;5013743;28;20026;-72
2022/05/30 13:56:12;;;;;;;3.50;0.90;;;;;;;;;;5026618;28;20087;-72
2022/05/30 13:58:38;;;;;;;5.10;1.10;;;;;;;;;;5012151;28;20029;-72
2022/05/30 14:01:10;;;;;;;4.32;1.10;;;;;;;;;;5012626;28;20034;-73
2022/05/30 14:03:37;;;;;;;2.90;1.02;;;;;;;;;;5032241;28;20117;-72
2022/05/30 14:06:17;;;;;;;5.72;1.42;;;;;;;;;;5018700;28;20159;-72
2022/05/30 14:08:44;;;;;;;3.97;1.45;;;;;;;;;;5029770;28;20048;-72
2022/05/30 14:11:09;;;;;;;4.28;1.58;;;;;;;;;;5031967;28;20087;-72
2022/05/30 14:13:49;;;;;;;4.03;1.15;;;;;;;;;;5031705;28;20108;-72
2022/05/30 14:16:31;;;;;;;4.70;1.35;;;;;;;;;;5017765;28;20180;-72
2022/05/30 14:18:57;;;;;;;3.33;1.40;;;;;;;;;;5032329;28;20021;-72
2022/05/30 14:21:26;;;;;;;4.63;1.65;;;;;;;;;;5026593;28;20084;-72
2022/05/30 14:23:58;;;;;;;3.88;1.38;;;;;;;;;;5014540;28;20565;-73
2022/05/30 14:26:31;;;;;;;5.40;1.52;;;;;;;;;;5028203;28;20032;-72
2022/05/30 14:28:59;;;;;;;3.40;1.17;;;;;;;;;;5027297;28;20532;-72
2022/05/30 14:31:27;;;;;;;4.70;1.42;;;;;;;;;;5012111;28;20030;-72
2022/05/30 14:33:53;;;;;;;4.30;1.50;;;;;;;;;;5010152;28;20022;-72
2022/05/30 14:36:27;;;;;;;3.95;1.45;;;;;;;;;;5026054;28;20026;-72
2022/05/30 14:38:59;;;;;;;4.22;1.27;;;;;;;;;;5031701;28;20497;-72
2022/05/30 14:41:24;;;;;;;3.75;1.48;;;;;;;;;;5031631;28;20030;-72
2022/05/30 14:43:51;;;;;;;3.83;1.40;;;;;;;;;;5032667;28;20461;-72
2022/05/30 14:46:17;;;;;;;4.65;1.40;;;;;;;;;;5028774;28;20041;-72
2022/05/30 14:48:47;;;;;;;5.13;1.38;;;;;;;;;;5017008;28;20530;-72
2022/05/30 14:51:37;;;;;;;5.15;1.50;;;;;;;;;;5027130;28;20100;-72
2022/05/30 14:54:05;;;;;;;3.13;1.33;;;;;;;;;;5016008;28;20051;-72
2022/05/30 14:56:30;;;;;;;5.05;1.55;;;;;;;;;;5029807;28;20466;-72
2022/05/30 14:59:00;;;;;;;4.28;1.27;;;;;;;;;;5031026;28;20032;-72
2022/05/30 15:01:25;;;;;;;5.90;1.45;;;;;;;;;;5027826;28;20537;-72
2022/05/30 15:04:04;;;;;;;5.32;1.27;;;;;;;;;;5011654;28;20101;-72
2022/05/30 15:06:36;;;;;;;4.60;1.10;;;;;;;;;;5028361;28;20041;-72
2022/05/30 15:09:01;;;;;;;2.85;1.20;;;;;;;;;;5030792;28;20021;-72
2022/05/30 15:11:26;;;;;;;3.03;1.20;;;;;;;;;;5030997;28;20034;-73
2022/05/30 15:13:53;;;;;;;3.78;1.00;;;;;;;;;;5030976;28;20026;-73
2022/05/30 15:16:19;;;;;;;2.95;1.05;;;;;;;;;;5028258;28;20029;-73
2022/05/30 15:18:45;;;;;;;2.60;0.80;;;;;;;;;;5028652;28;20029;-73
2022/05/30 15:21:17;;;;;;;2.35;0.90;;;;;;;;;;5027876;28;20448;-73